Time;durP1;ratioP1;P1;durP2;ratioP2;P2;SDS_P1;SDS_P2;PMS_P1;PMS_P2;Temp;Humidity;BMP_temperature;BMP_pressure;BME280_temperature;BME280_humidity;BME280_pressure;Samples;Min_cycle;Max_cycle;Signal;HPM_P1;HPM_P2
2022/08/09 00:00:52;;;;;;;7.13;3.53;;;;;;;23.04;51.74;102870.44;5012216;28;20029;-73
2022/08/09 00:03:18;;;;;;;6.40;3.58;;;;;;;23.13;51.12;102859.81;5012069;28;20045;-74
2022/08/09 00:05:43;;;;;;;7.32;3.78;;;;;;;22.84;52.54;102870.22;5011973;28;20084;-74
2022/08/09 00:08:11;;;;;;;11.23;4.07;;;;;;;22.74;52.33;102853.69;5012158;28;20026;-73
2022/08/09 00:10:40;;;;;;;7.32;4.80;;;;;;;23.14;51.16;102856.81;5011962;28;20406;-74
2022/08/09 00:13:07;;;;;;;7.03;3.83;;;;;;;23.20;51.28;102860.44;5012097;28;20033;-74
2022/08/09 00:15:33;;;;;;;7.55;3.58;;;;;;;23.17;51.38;102861.78;5006572;28;20034;-75
2022/08/09 00:17:58;;;;;;;4.85;4.00;;;;;;;22.99;51.77;102853.94;5011578;28;20057;-73
2022/08/09 00:20:24;;;;;;;9.90;3.78;;;;;;;23.32;50.94;102858.38;5012768;28;20525;-74
2022/08/09 00:22:49;;;;;;;6.35;3.45;;;;;;;23.26;50.29;102857.47;5012699;28;20558;-74
2022/08/09 00:25:15;;;;;;;5.72;3.55;;;;;;;23.21;51.04;102851.94;5011528;28;20105;-74
2022/08/09 00:27:41;;;;;;;10.52;4.80;;;;;;;23.15;51.08;102853.00;5011611;28;20121;-74
2022/08/09 00:30:07;;;;;;;10.63;4.28;;;;;;;23.23;51.54;102849.75;5011409;28;20125;-74
2022/08/09 00:32:32;;;;;;;9.10;4.10;;;;;;;23.19;50.81;102847.81;5005962;28;20061;-75
2022/08/09 00:34:58;;;;;;;6.43;3.85;;;;;;;23.07;51.62;102861.69;5011858;28;20045;-74
2022/08/09 00:37:24;;;;;;;6.40;3.70;;;;;;;22.95;52.18;102851.97;5011245;28;20033;-74
2022/08/09 00:39:49;;;;;;;8.25;4.05;;;;;;;23.05;51.98;102855.63;5011316;28;20034;-73
2022/08/09 00:42:15;;;;;;;6.20;3.78;;;;;;;22.75;52.25;102854.47;5011389;28;20494;-75
2022/08/09 00:44:40;;;;;;;8.90;4.68;;;;;;;23.05;51.79;102861.13;5011234;28;20026;-74
2022/08/09 00:47:07;;;;;;;5.63;4.05;;;;;;;22.96;51.60;102854.44;5011856;28;20029;-74
2022/08/09 00:49:35;;;;;;;6.03;4.88;;;;;;;23.03;51.61;102860.56;5005727;28;20058;-73
2022/08/09 00:52:01;;;;;;;10.02;4.20;;;;;;;22.75;52.40;102860.78;5011236;28;20288;-73
2022/08/09 00:54:27;;;;;;;6.65;4.60;;;;;;;23.05;51.73;102865.78;5010185;28;20650;-75
2022/08/09 00:56:52;;;;;;;10.23;4.30;;;;;;;23.10;51.37;102868.56;5005951;28;20049;-74
2022/08/09 00:59:18;;;;;;;5.57;4.13;;;;;;;22.90;51.67;102868.38;5011845;28;20034;-74
2022/08/09 01:01:47;;;;;;;8.43;4.65;;;;;;;22.87;52.35;102869.72;5010944;28;20041;-74
2022/08/09 01:04:24;;;;;;;9.43;5.03;;;;;;;23.01;51.45;102872.88;5005379;28;20421;-76
2022/08/09 01:07:03;;;;;;;6.18;4.05;;;;;;;22.96;51.37;102868.16;5010766;28;20073;-74
2022/08/09 01:09:44;;;;;;;12.38;4.72;;;;;;;22.71;52.54;102865.13;5011036;28;20033;-75
2022/08/09 01:12:38;;;;;;;10.75;4.47;;;;;;;22.80;52.48;102863.59;5030409;28;20037;-75
2022/08/09 01:15:09;;;;;;;7.95;4.38;;;;;;;22.84;51.72;102869.41;5028132;28;20041;-74
2022/08/09 01:17:48;;;;;;;;;;;;;;;22.77;52.45;102860.53;5026332;28;20071;-72
2022/08/09 01:20:55;;;;;;;12.13;5.00;;;;;;;22.52;53.42;102859.16;5025585;28;19943;-73
2022/08/09 01:23:47;;;;;;;6.80;5.47;;;;;;;22.34;53.98;102864.09;4949725;29;20070;-74
2022/08/09 01:26:37;;;;;;;11.43;4.78;;;;;;;22.49;52.99;102864.28;4949812;29;20043;-74
2022/08/09 01:29:05;;;;;;;15.23;5.03;;;;;;;22.75;52.62;102869.03;4947218;29;20566;-74
2022/08/09 01:31:32;;;;;;;11.38;5.20;;;;;;;22.54;53.16;102869.84;4949495;29;20118;-74
2022/08/09 01:34:01;;;;;;;8.18;5.25;;;;;;;22.47;53.05;102866.44;4949286;29;20108;-74
2022/08/09 01:36:29;;;;;;;10.23;5.13;;;;;;;22.50;53.34;102863.22;4949757;29;20047;-74
2022/08/09 01:38:56;;;;;;;11.70;4.75;;;;;;;22.45;53.18;102869.44;4944964;29;20096;-73
2022/08/09 01:41:25;;;;;;;7.65;4.72;;;;;;;22.38;53.58;102873.47;4949989;29;20145;-72
2022/08/09 01:43:53;;;;;;;10.32;5.32;;;;;;;22.34;53.34;102872.31;4949437;29;20182;-74
2022/08/09 01:46:41;;;;;;;5.93;4.47;;;;;;;22.42;53.41;102877.38;4949458;28;20142;-74
2022/08/09 01:49:13;;;;;;;6.40;4.95;;;;;;;22.53;52.37;102870.91;4948483;29;20111;-75
2022/08/09 01:51:44;;;;;;;10.90;5.20;;;;;;;22.35;53.67;102871.22;4945634;29;20075;-74
2022/08/09 01:54:12;;;;;;;8.90;5.80;;;;;;;22.28;54.02;102870.59;4949269;29;20039;-74
2022/08/09 01:56:40;;;;;;;10.63;5.57;;;;;;;22.38;53.69;102868.81;4949375;29;20072;-74
2022/08/09 01:59:10;;;;;;;9.73;6.32;;;;;;;22.26;54.02;102868.13;4957476;28;20039;-75
2022/08/09 02:01:36;;;;;;;8.45;5.35;;;;;;;22.42;53.92;102877.38;5030833;28;20235;-74
2022/08/09 02:04:03;;;;;;;10.13;5.80;;;;;;;22.52;52.65;102872.84;5030083;28;20045;-73
2022/08/09 02:09:19;;;;;;;10.40;6.05;;;;;;;22.47;53.61;102871.94;5034836;28;20099;-74
2022/08/09 02:11:44;;;;;;;9.90;5.53;;;;;;;22.47;52.76;102866.44;5034416;28;20051;-76
2022/08/09 02:14:13;;;;;;;9.52;6.03;;;;;;;22.40;53.74;102871.31;5035202;28;20045;-74
2022/08/09 02:16:40;;;;;;;14.80;7.25;;;;;;;22.24;53.78;102870.28;5034568;28;20497;-73
2022/08/09 02:19:06;;;;;;;7.07;5.28;;;;;;;22.28;53.56;102871.44;5015571;28;20118;-75
2022/08/09 02:21:38;;;;;;;8.38;6.20;;;;;;;22.53;52.95;102866.28;5034157;28;20080;-76
2022/08/09 02:24:08;;;;;;;10.18;6.03;;;;;;;22.24;53.54;102878.50;5033806;28;20045;-74
2022/08/09 02:26:35;;;;;;;8.00;6.18;;;;;;;22.23;53.75;102870.53;5016080;28;20516;-74
2022/08/09 02:29:29;;;;;;;8.68;6.25;;;;;;;22.21;53.94;102878.19;5034755;28;20106;-74
2022/08/09 02:32:02;;;;;;;12.07;6.95;;;;;;;22.20;54.00;102877.34;5032346;28;20069;-75
2022/08/09 02:34:33;;;;;;;14.18;6.78;;;;;;;21.98;54.43;102881.94;5033750;28;20041;-73
2022/08/09 02:37:02;;;;;;;10.07;7.82;;;;;;;22.09;53.84;102880.19;5033755;28;20520;-75
2022/08/09 02:39:36;;;;;;;13.60;6.40;;;;;;;22.11;53.93;102878.03;5015161;28;20049;-74
2022/08/09 02:42:08;;;;;;;11.20;6.28;;;;;;;22.19;53.70;102878.41;5033531;28;20041;-74
2022/08/09 02:44:40;;;;;;;11.32;6.68;;;;;;;22.16;53.55;102873.47;5033277;28;20029;-74
2022/08/09 02:47:11;;;;;;;10.18;6.72;;;;;;;22.30;53.09;102866.53;5034024;28;20029;-74
2022/08/09 02:49:42;;;;;;;12.02;6.63;;;;;;;22.22;53.24;102866.97;5033278;28;20135;-73
2022/08/09 02:52:13;;;;;;;11.93;6.45;;;;;;;22.27;53.14;102864.28;5033527;28;20116;-74
2022/08/09 02:54:40;;;;;;;9.85;6.72;;;;;;;22.15;53.59;102860.81;5033420;28;20235;-74
2022/08/09 02:57:09;;;;;;;11.50;6.50;;;;;;;22.13;53.57;102859.44;5033390;28;20040;-74
2022/08/09 02:59:37;;;;;;;11.95;6.60;;;;;;;22.04;53.77;102866.41;5033359;28;20076;-74
2022/08/09 03:02:07;;;;;;;7.68;6.85;;;;;;;21.92;54.21;102863.78;5033834;28;20041;-74
2022/08/09 03:04:35;;;;;;;10.25;7.63;;;;;;;22.15;53.26;102862.75;5033146;28;20163;-74
2022/08/09 03:07:03;;;;;;;11.50;6.78;;;;;;;21.82;54.44;102861.75;5015514;28;20044;-74
2022/08/09 03:09:29;;;;;;;9.43;6.97;;;;;;;22.03;54.17;102860.13;5033278;28;20033;-75
2022/08/09 03:11:58;;;;;;;10.82;7.32;;;;;;;21.98;54.14;102856.47;5033451;28;20033;-76
2022/08/09 03:14:24;;;;;;;9.85;7.18;;;;;;;22.09;53.96;102859.13;5033491;28;20123;-73
2022/08/09 03:16:51;;;;;;;7.97;6.93;;;;;;;21.98;54.21;102851.84;5031979;28;20022;-76
2022/08/09 03:19:18;;;;;;;12.15;7.70;;;;;;;21.92;54.18;102855.56;5032717;28;20073;-76
2022/08/09 03:21:49;;;;;;;13.30;7.50;;;;;;;21.93;54.00;102851.78;5032583;28;20061;-74
2022/08/09 03:24:17;;;;;;;11.93;7.80;;;;;;;22.09;53.78;102850.06;5033234;28;20076;-75
2022/08/09 03:26:44;;;;;;;9.85;7.05;;;;;;;21.94;54.38;102860.78;5032921;28;20034;-75
2022/08/09 03:29:10;;;;;;;10.85;8.10;;;;;;;21.98;53.87;102853.72;5033122;28;20125;-75
2022/08/09 03:31:36;;;;;;;9.88;7.32;;;;;;;21.95;53.72;102857.00;5033040;28;20121;-74
2022/08/09 03:34:03;;;;;;;10.10;7.82;;;;;;;21.92;54.43;102849.25;5032962;28;20048;-75
2022/08/09 03:36:29;;;;;;;11.02;8.10;;;;;;;21.85;54.63;102852.19;5015469;28;20044;-74
2022/08/09 03:38:55;;;;;;;12.00;7.65;;;;;;;21.85;54.46;102854.94;5033106;28;20029;-74
2022/08/09 03:41:21;;;;;;;16.73;8.38;;;;;;;21.72;54.51;102863.44;5031601;28;20094;-75
2022/08/09 03:43:47;;;;;;;10.07;7.78;;;;;;;21.57;55.69;102857.75;5032520;28;20456;-74
2022/08/09 03:46:13;;;;;;;14.65;8.35;;;;;;;21.69;54.75;102858.50;5032577;28;20041;-74
2022/08/09 03:48:40;;;;;;;12.85;8.48;;;;;;;21.90;54.17;102856.91;5032835;28;20034;-74
2022/08/09 03:51:08;;;;;;;10.82;8.15;;;;;;;21.71;55.01;102865.38;5032746;28;20049;-74
2022/08/09 03:53:34;;;;;;;10.25;8.32;;;;;;;21.63;55.13;102859.47;5032716;28;20037;-72
2022/08/09 03:56:02;;;;;;;15.02;8.95;;;;;;;21.75;54.41;102861.06;5033392;28;20052;-73
2022/08/09 03:58:27;;;;;;;11.40;7.78;;;;;;;21.75;54.64;102865.69;5032953;28;20632;-74
2022/08/09 04:00:54;;;;;;;11.55;7.47;;;;;;;21.73;54.90;102870.59;5030732;28;20033;-75
2022/08/09 04:03:19;;;;;;;10.95;7.70;;;;;;;21.56;55.57;102872.53;5011857;28;20406;-75
2022/08/09 04:05:45;;;;;;;12.60;8.18;;;;;;;21.28;56.47;102869.84;5011911;28;20022;-74
2022/08/09 04:08:11;;;;;;;11.00;7.20;;;;;;;21.46;56.50;102869.63;5012766;28;20026;-74
2022/08/09 04:10:36;;;;;;;17.75;7.90;;;;;;;21.41;56.79;102872.25;4994836;28;20038;-75
2022/08/09 04:13:08;;;;;;;9.50;8.18;;;;;;;21.65;55.70;102871.84;5012151;28;20355;-74
2022/08/09 04:15:34;;;;;;;14.18;8.25;;;;;;;21.56;55.54;102876.06;5011963;28;20122;-73
2022/08/09 04:18:02;;;;;;;11.30;7.82;;;;;;;21.83;54.80;102873.53;5012335;28;20045;-75
2022/08/09 04:20:28;;;;;;;14.18;8.18;;;;;;;21.82;54.99;102877.31;5011832;28;20181;-73
2022/08/09 04:22:54;;;;;;;10.65;7.70;;;;;;;21.54;55.87;102885.63;5013298;28;20033;-74
2022/08/09 04:25:19;;;;;;;10.82;8.68;;;;;;;21.83;55.00;102879.84;4995008;28;20482;-76
2022/08/09 04:27:45;;;;;;;13.00;7.95;;;;;;;21.63;55.57;102879.47;5011898;28;20125;-75
2022/08/09 04:30:13;;;;;;;10.60;7.95;;;;;;;21.45;56.15;102879.72;5012027;28;20034;-75
2022/08/09 04:32:39;;;;;;;10.65;7.80;;;;;;;21.68;55.32;102882.28;5012052;28;20045;-75
2022/08/09 04:35:06;;;;;;;11.98;8.05;;;;;;;21.59;55.89;102889.25;5012227;28;20041;-74
2022/08/09 04:37:32;;;;;;;12.27;7.63;;;;;;;21.50;55.71;102892.66;5011927;28;20040;-76
2022/08/09 04:39:57;;;;;;;11.70;7.90;;;;;;;21.57;55.78;102902.38;5011757;28;20041;-74
2022/08/09 04:42:26;;;;;;;10.65;8.30;;;;;;;21.81;55.12;102900.31;5011862;28;20033;-74
2022/08/09 04:44:51;;;;;;;11.07;8.10;;;;;;;21.71;55.45;102905.59;5011694;28;20033;-73
2022/08/09 04:47:16;;;;;;;11.27;7.63;;;;;;;21.80;55.16;102904.09;5012043;28;20080;-74
2022/08/09 04:49:42;;;;;;;10.23;7.13;;;;;;;21.65;55.46;102906.59;4993764;28;20045;-73
2022/08/09 04:52:07;;;;;;;7.50;6.55;;;;;;;21.82;54.75;102905.53;5011557;28;20501;-74
2022/08/09 04:54:33;;;;;;;14.45;8.07;;;;;;;21.70;55.25;102899.28;5011691;28;20042;-73
2022/08/09 04:56:58;;;;;;;11.65;6.18;;;;;;;21.75;55.39;102899.38;4993401;28;20074;-74
2022/08/09 04:59:24;;;;;;;11.23;6.93;;;;;;;21.67;55.12;102909.91;5011930;28;20025;-74
2022/08/09 05:01:49;;;;;;;17.30;7.40;;;;;;;21.94;54.39;102910.06;5011277;28;20132;-73
2022/08/09 05:04:14;;;;;;;14.57;6.00;;;;;;;21.90;55.00;102912.50;4993779;28;20049;-74
2022/08/09 05:06:40;;;;;;;7.95;6.22;;;;;;;21.83;54.97;102917.31;5011380;28;20453;-75
2022/08/09 05:09:05;;;;;;;11.63;6.63;;;;;;;21.66;55.84;102911.00;5011398;28;20037;-74
2022/08/09 05:11:30;;;;;;;9.40;7.07;;;;;;;21.55;55.96;102920.09;4993260;28;20108;-74
2022/08/09 05:13:56;;;;;;;9.18;6.45;;;;;;;21.79;55.30;102918.88;4993815;28;20034;-73
2022/08/09 05:16:21;;;;;;;10.38;6.90;;;;;;;21.83;55.28;102920.06;5015455;28;20041;-74
2022/08/09 05:18:47;;;;;;;7.75;6.03;;;;;;;22.03;54.61;102914.91;5030446;28;20394;-68
2022/08/09 05:21:12;;;;;;;10.30;6.32;;;;;;;21.69;55.55;102918.69;5030859;28;20046;-69
2022/08/09 05:23:38;;;;;;;9.50;5.20;;;;;;;21.79;55.60;102922.44;5021073;28;20373;-69
2022/08/09 05:26:03;;;;;;;8.95;6.13;;;;;;;22.08;54.68;102923.19;5028756;28;20025;-69
2022/08/09 05:28:28;;;;;;;9.15;5.35;;;;;;;21.96;55.02;102927.09;5030762;28;20095;-69
2022/08/09 05:30:54;;;;;;;11.45;6.90;;;;;;;22.14;54.52;102926.81;5030611;28;20409;-68
2022/08/09 05:33:20;;;;;;;12.45;7.07;;;;;;;21.91;54.93;102930.59;5030617;28;20080;-69
2022/08/09 05:35:45;;;;;;;15.75;6.85;;;;;;;22.08;54.95;102930.56;5030358;28;20029;-68
2022/08/09 05:38:11;;;;;;;9.40;6.90;;;;;;;22.08;54.58;102938.78;5031325;28;20026;-68
2022/08/09 05:40:36;;;;;;;10.05;6.30;;;;;;;22.27;54.29;102932.75;5029934;28;20065;-68
2022/08/09 05:43:02;;;;;;;10.23;6.80;;;;;;;21.19;56.96;102940.50;5030715;28;20050;-67
2022/08/09 05:45:28;;;;;;;7.68;6.15;;;;;;;22.15;54.87;102942.19;5030497;28;20041;-68
2022/08/09 05:47:54;;;;;;;7.05;6.20;;;;;;;22.09;55.24;102948.66;5030440;28;20048;-68
2022/08/09 05:50:24;;;;;;;7.68;5.45;;;;;;;22.43;54.27;102951.09;5030490;28;20033;-67
2022/08/09 05:52:51;;;;;;;14.35;5.82;;;;;;;22.41;53.99;102947.75;5030714;28;20049;-71
2022/08/09 05:55:17;;;;;;;7.13;5.55;;;;;;;22.46;54.44;102941.53;5028918;28;20052;-73
2022/08/09 05:57:42;;;;;;;9.30;6.30;;;;;;;22.23;54.92;102936.28;5031791;28;20393;-72
2022/08/09 06:00:08;;;;;;;10.07;6.30;;;;;;;22.35;54.51;102943.28;5031940;28;20037;-72
2022/08/09 06:02:34;;;;;;;7.22;5.32;;;;;;;22.52;53.89;102943.25;5031729;28;20515;-72
2022/08/09 06:05:02;;;;;;;11.88;6.07;;;;;;;22.57;54.17;102962.53;5031356;28;20036;-72
2022/08/09 06:07:28;;;;;;;10.35;6.13;;;;;;;22.56;54.10;102953.44;5030820;28;20044;-72
2022/08/09 06:09:54;;;;;;;8.25;5.18;;;;;;;22.49;54.48;102952.81;5030936;28;20128;-71
2022/08/09 06:12:20;;;;;;;5.03;4.53;;;;;;;22.72;53.68;102946.31;5030938;28;20045;-71
2022/08/09 06:14:46;;;;;;;9.73;5.20;;;;;;;22.66;54.12;102953.63;5030766;28;20030;-72
2022/08/09 06:17:11;;;;;;;10.60;5.03;;;;;;;22.68;53.41;102953.38;5031315;28;20523;-72
2022/08/09 06:19:37;;;;;;;6.38;5.13;;;;;;;22.74;53.57;102951.53;5030464;28;20115;-71
2022/08/09 06:22:02;;;;;;;7.18;4.72;;;;;;;23.00;53.27;102968.03;5030758;28;20445;-72
2022/08/09 06:24:28;;;;;;;7.15;4.47;;;;;;;23.03;52.85;102966.69;5030824;28;20044;-72
2022/08/09 06:26:53;;;;;;;6.60;4.90;;;;;;;22.98;52.79;102969.34;5031012;28;20049;-71
2022/08/09 06:29:18;;;;;;;16.38;4.82;;;;;;;22.94;53.40;102963.56;5031826;28;20041;-71
2022/08/09 06:31:44;;;;;;;9.07;4.70;;;;;;;22.92;53.04;102960.25;5030633;28;20037;-72
2022/08/09 06:34:09;;;;;;;7.75;4.50;;;;;;;23.13;52.16;102964.91;5030822;28;20046;-71
2022/08/09 06:36:35;;;;;;;5.65;4.50;;;;;;;22.34;54.92;102971.78;5028232;28;20034;-71
2022/08/09 06:39:00;;;;;;;6.93;5.10;;;;;;;23.01;52.89;102971.59;5030676;28;20056;-72
2022/08/09 06:41:26;;;;;;;7.28;4.75;;;;;;;23.12;52.56;102973.34;5031336;28;20025;-73
2022/08/09 06:43:51;;;;;;;6.15;4.47;;;;;;;23.31;52.44;102982.97;5011345;28;20093;-71
2022/08/09 06:46:17;;;;;;;8.45;3.70;;;;;;;23.40;51.78;102978.66;5010443;28;20096;-72
2022/08/09 06:48:42;;;;;;;10.25;3.70;;;;;;;23.65;51.31;102973.41;5011153;28;20453;-72
2022/08/09 06:51:09;;;;;;;5.82;3.92;;;;;;;23.75;51.37;102980.91;5010691;28;20470;-72
2022/08/09 06:53:34;;;;;;;6.93;3.42;;;;;;;23.79;51.50;102979.28;4995946;28;20451;-72
2022/08/09 06:56:02;;;;;;;6.13;3.13;;;;;;;23.79;51.04;102979.28;5014845;28;20025;-72
2022/08/09 06:58:28;;;;;;;7.28;3.33;;;;;;;23.54;51.25;102983.47;5013875;28;20458;-72
2022/08/09 07:00:54;;;;;;;6.28;3.42;;;;;;;24.01;50.28;102983.59;5014406;28;20057;-72
2022/08/09 07:03:20;;;;;;;8.48;3.28;;;;;;;24.17;49.97;102993.66;5014548;28;20112;-72
2022/08/09 07:05:46;;;;;;;6.07;2.97;;;;;;;24.12;50.16;102995.50;5001172;28;20426;-72
2022/08/09 07:08:11;;;;;;;6.07;3.10;;;;;;;24.19;49.49;102985.97;4993423;28;20053;-72
2022/08/09 07:10:37;;;;;;;11.25;3.40;;;;;;;24.08;50.00;102989.72;4994078;28;20038;-72
2022/08/09 07:13:02;;;;;;;5.13;3.03;;;;;;;24.00;50.03;102981.94;4994163;28;20038;-72
2022/08/09 07:15:28;;;;;;;3.92;2.97;;;;;;;24.21;49.72;102988.44;5027059;28;20045;-72
2022/08/09 07:17:53;;;;;;;3.38;2.38;;;;;;;24.40;49.14;102990.50;5033423;28;20052;-72
2022/08/09 07:20:19;;;;;;;4.95;2.47;;;;;;;24.47;49.15;102992.19;5033057;28;20060;-72
2022/08/09 07:22:45;;;;;;;4.05;2.78;;;;;;;24.43;49.56;102994.66;5032703;28;20052;-72
2022/08/09 07:25:11;;;;;;;3.35;2.42;;;;;;;24.67;49.00;102995.88;5032661;28;20402;-71
2022/08/09 07:27:37;;;;;;;3.60;2.50;;;;;;;24.47;49.59;102995.75;5032833;28;20036;-72
2022/08/09 07:30:04;;;;;;;4.93;2.97;;;;;;;24.79;48.36;102996.50;5032949;28;20087;-71
2022/08/09 07:32:30;;;;;;;5.57;2.70;;;;;;;25.03;48.13;103000.47;5033756;28;20610;-71
2022/08/09 07:34:55;;;;;;;5.50;2.30;;;;;;;25.10;47.96;102995.53;5033296;28;20033;-71
2022/08/09 07:37:21;;;;;;;3.60;2.20;;;;;;;25.07;48.28;103003.50;5033102;28;20029;-71
2022/08/09 07:39:46;;;;;;;5.13;2.35;;;;;;;25.04;47.68;102999.38;5033349;28;20116;-71
2022/08/09 07:42:12;;;;;;;2.90;2.28;;;;;;;25.35;46.78;102999.47;5012793;28;20037;-72
2022/08/09 07:44:38;;;;;;;5.38;2.08;;;;;;;25.15;47.43;102995.56;5033387;28;20033;-71
2022/08/09 07:47:04;;;;;;;2.70;1.88;;;;;;;24.71;47.85;102996.16;5033482;28;20033;-72
2022/08/09 07:49:29;;;;;;;3.58;1.70;;;;;;;24.70;48.30;102991.75;5032813;28;20038;-71
2022/08/09 07:51:54;;;;;;;3.08;2.05;;;;;;;25.31;46.41;102992.84;5032888;28;20026;-71
2022/08/09 07:54:20;;;;;;;4.18;2.35;;;;;;;25.31;46.46;102981.84;5032699;28;20041;-72
2022/08/09 07:56:45;;;;;;;8.70;2.03;;;;;;;25.56;46.00;102990.16;5033059;28;20075;-71
2022/08/09 07:59:11;;;;;;;6.68;2.25;;;;;;;25.69;45.75;102995.16;5033316;28;20021;-72
2022/08/09 08:01:36;;;;;;;4.65;2.38;;;;;;;25.56;45.95;102992.94;5032595;28;20136;-72
2022/08/09 08:04:02;;;;;;;7.25;2.03;;;;;;;25.43;46.67;102990.72;5031533;28;20042;-72
2022/08/09 08:06:28;;;;;;;6.53;2.20;;;;;;;25.53;45.84;102988.81;5022450;28;20053;-71
2022/08/09 08:08:53;;;;;;;5.72;1.73;;;;;;;25.53;45.41;102987.97;5020053;28;20037;-72
2022/08/09 08:11:19;;;;;;;2.47;1.48;;;;;;;26.08;44.48;102988.84;5019471;28;20034;-72
2022/08/09 08:13:44;;;;;;;5.38;1.63;;;;;;;26.07;43.86;103000.13;5023207;28;20378;-71
2022/08/09 08:16:10;;;;;;;3.03;1.35;;;;;;;25.97;43.89;102986.31;5023262;28;20040;-71
2022/08/09 08:18:35;;;;;;;2.92;0.90;;;;;;;25.43;44.33;102986.03;5017774;28;20064;-71
2022/08/09 08:21:01;;;;;;;4.72;0.75;;;;;;;25.75;43.08;102985.81;5023018;28;20092;-71
2022/08/09 08:23:26;;;;;;;1.23;0.70;;;;;;;26.14;42.02;102986.91;5002458;28;20111;-72
2022/08/09 08:25:51;;;;;;;3.10;1.00;;;;;;;26.48;41.71;102985.19;5024979;28;20440;-71
2022/08/09 08:28:18;;;;;;;1.67;0.80;;;;;;;25.91;42.06;102987.44;5004557;28;20041;-70
2022/08/09 08:30:44;;;;;;;1.85;0.73;;;;;;;26.06;41.71;102984.72;5014873;28;20030;-70
2022/08/09 08:33:10;;;;;;;1.60;0.40;;;;;;;26.22;39.68;102988.28;5018693;28;20038;-70
2022/08/09 08:35:35;;;;;;;1.10;0.50;;;;;;;26.82;38.98;102988.13;5011465;28;20520;-71
2022/08/09 08:38:19;;;;;;;2.33;0.80;;;;;;;26.89;39.29;102997.75;5007293;28;20033;-71
2022/08/09 08:40:44;;;;;;;2.75;0.52;;;;;;;27.23;38.85;102995.09;4984039;28;20049;-71
2022/08/09 08:43:10;;;;;;;2.17;0.85;;;;;;;26.93;41.15;103001.59;4996821;28;20042;-72
2022/08/09 08:45:50;;;;;;;1.05;0.50;;;;;;;26.67;41.38;102997.25;5001973;28;20029;-71
2022/08/09 08:48:16;;;;;;;3.00;1.05;;;;;;;26.33;41.34;102996.25;4986924;28;20057;-72
2022/08/09 08:50:42;;;;;;;3.25;0.77;;;;;;;27.08;39.89;102992.44;4999593;28;20025;-71
2022/08/09 08:53:08;;;;;;;1.02;0.30;;;;;;;26.30;40.14;102993.22;5001795;28;20033;-71
2022/08/09 08:55:34;;;;;;;0.43;0.25;;;;;;;27.15;37.04;103004.00;4997866;28;20057;-71
2022/08/09 08:58:01;;;;;;;0.28;0.22;;;;;;;26.97;36.76;103006.56;5003595;28;20049;-71
2022/08/09 09:00:27;;;;;;;1.95;0.28;;;;;;;27.30;36.47;102997.56;5011811;28;20042;-71
2022/08/09 09:02:57;;;;;;;2.35;0.52;;;;;;;27.23;36.62;103008.09;5012158;28;20030;-70
2022/08/09 09:05:24;;;;;;;0.90;0.40;;;;;;;27.67;35.99;102989.59;5011860;28;20037;-69
2022/08/09 09:07:52;;;;;;;2.35;0.25;;;;;;;27.92;35.60;102999.63;5010775;28;20128;-68
2022/08/09 09:10:18;;;;;;;0.43;0.20;;;;;;;27.13;35.71;102995.16;5015766;28;20029;-68
2022/08/09 09:12:44;;;;;;;1.23;0.40;;;;;;;27.65;35.53;103000.97;5016098;28;20042;-68
2022/08/09 09:15:10;;;;;;;3.40;0.50;;;;;;;27.96;36.29;102987.72;5017503;28;20046;-67
2022/08/09 09:17:36;;;;;;;1.90;0.50;;;;;;;27.16;37.30;102996.53;5019332;28;20024;-69
2022/08/09 09:20:08;;;;;;;1.42;0.40;;;;;;;27.43;37.14;102989.50;5014824;28;20095;-68
2022/08/09 09:22:57;;;;;;;6.15;0.57;;;;;;;28.02;35.83;103002.31;5014568;28;20044;-68
2022/08/09 09:25:40;;;;;;;0.95;0.45;;;;;;;27.95;36.30;102991.59;5004538;28;20033;-68
2022/08/09 09:28:07;;;;;;;1.67;0.50;;;;;;;28.22;35.44;103005.75;5001143;28;20048;-67
2022/08/09 09:30:34;;;;;;;0.80;0.40;;;;;;;27.38;36.53;103008.03;4980662;28;20061;-67
2022/08/09 09:33:05;;;;;;;1.23;0.50;;;;;;;27.97;35.92;102999.63;4997637;28;20038;-68
2022/08/09 09:35:31;;;;;;;2.13;0.50;;;;;;;28.19;35.61;102998.00;4996192;28;20033;-67
2022/08/09 09:37:58;;;;;;;1.40;0.68;;;;;;;28.44;35.00;102989.44;4998116;28;20030;-67
2022/08/09 09:40:41;;;;;;;2.25;0.45;;;;;;;28.30;35.60;102999.59;5007973;28;20126;-69
2022/08/09 09:43:06;;;;;;;3.95;0.50;;;;;;;28.34;34.72;102999.81;5020050;28;20048;-69
2022/08/09 09:45:51;;;;;;;2.90;0.50;;;;;;;28.62;35.02;102990.66;5019140;28;20405;-68
2022/08/09 09:48:18;;;;;;;1.52;0.63;;;;;;;28.52;34.85;102999.06;5019627;28;20122;-67
2022/08/09 09:50:47;;;;;;;1.75;0.68;;;;;;;28.88;34.29;103005.84;5020389;28;20032;-69
2022/08/09 09:53:17;;;;;;;2.42;0.50;;;;;;;28.10;34.69;102990.66;5020508;28;20577;-68
2022/08/09 09:55:58;;;;;;;1.85;0.40;;;;;;;28.51;34.79;102989.94;5020370;28;20095;-67
2022/08/09 09:58:25;;;;;;;1.50;0.40;;;;;;;28.86;33.47;102979.56;5020682;28;20030;-69
2022/08/09 10:00:56;;;;;;;0.95;0.40;;;;;;;29.43;32.74;102980.19;5020341;28;20037;-68
2022/08/09 10:03:45;;;;;;;2.72;0.70;;;;;;;27.57;37.50;102990.50;5018216;28;20033;-68
2022/08/09 10:06:11;;;;;;;2.17;0.65;;;;;;;28.58;34.82;102989.59;5017526;28;20062;-67
2022/08/09 10:08:36;;;;;;;0.60;0.55;;;;;;;29.39;32.95;102992.97;5019428;28;20109;-68
2022/08/09 10:11:21;;;;;;;1.85;0.57;;;;;;;29.91;33.13;102991.06;5019798;28;20050;-67
2022/08/09 10:13:48;;;;;;;3.15;0.75;;;;;;;29.94;32.93;102985.75;5010057;28;20042;-67
2022/08/09 10:16:15;;;;;;;7.97;0.75;;;;;;;29.80;32.64;102979.31;4996569;28;20096;-69
2022/08/09 10:18:52;;;;;;;4.75;0.45;;;;;;;29.86;33.52;102986.44;5009945;28;20359;-68
2022/08/09 10:21:18;;;;;;;1.92;0.60;;;;;;;30.06;33.15;102985.25;5014492;28;20046;-67
2022/08/09 10:23:43;;;;;;;1.33;0.43;;;;;;;30.29;32.64;102985.13;5023440;28;20503;-68
2022/08/09 10:26:10;;;;;;;1.38;0.45;;;;;;;30.04;32.90;102981.97;5008395;28;20030;-68
2022/08/09 10:28:37;;;;;;;2.28;0.50;;;;;;;30.49;31.87;102978.34;5010750;28;20050;-68
2022/08/09 10:31:02;;;;;;;1.60;0.60;;;;;;;30.99;31.04;102982.06;5010434;28;20097;-68
2022/08/09 10:33:28;;;;;;;0.47;0.22;;;;;;;30.91;30.14;102980.03;5011112;28;20128;-67
2022/08/09 10:35:55;;;;;;;1.15;0.38;;;;;;;30.60;31.28;102974.25;5011884;28;20540;-67
2022/08/09 10:38:21;;;;;;;1.23;0.30;;;;;;;31.02;31.20;102979.47;5014100;28;20110;-69
2022/08/09 10:40:46;;;;;;;2.95;0.50;;;;;;;30.34;32.06;102975.88;5014002;28;20054;-69
2022/08/09 10:43:12;;;;;;;2.90;0.47;;;;;;;30.82;31.54;102971.56;5013821;28;20048;-69
2022/08/09 10:45:43;;;;;;;1.55;0.60;;;;;;;30.91;31.17;102974.47;5013792;28;20038;-69
2022/08/09 10:48:32;;;;;;;2.92;0.55;;;;;;;31.39;30.10;102972.00;5013911;28;20133;-69
2022/08/09 10:51:19;;;;;;;1.33;0.30;;;;;;;31.33;30.87;102962.91;5013632;28;20038;-68
2022/08/09 10:54:06;;;;;;;4.68;0.40;;;;;;;31.03;30.80;102969.19;5005737;28;20038;-70
2022/08/09 10:56:35;;;;;;;1.10;0.30;;;;;;;31.66;30.68;102975.50;5005972;28;20380;-68
2022/08/09 10:59:20;;;;;;;1.55;0.45;;;;;;;31.15;30.73;102963.94;5000064;28;20034;-69
2022/08/09 11:01:47;;;;;;;1.05;0.30;;;;;;;31.30;30.06;102959.97;4999839;28;20034;-69
2022/08/09 11:04:24;;;;;;;1.58;0.60;;;;;;;30.70;30.78;102960.16;5000723;28;20125;-68
2022/08/09 11:06:59;;;;;;;3.80;0.52;;;;;;;31.01;30.19;102952.84;4998765;28;20050;-69
2022/08/09 11:09:36;;;;;;;3.13;0.55;;;;;;;31.80;29.27;102953.19;4999571;28;20040;-69
2022/08/09 11:12:25;;;;;;;0.95;0.32;;;;;;;30.96;30.87;102957.69;5006655;28;20070;-70
2022/08/09 11:15:24;;;;;;;0.85;0.32;;;;;;;31.62;29.80;102945.88;5001677;28;20403;-70
2022/08/09 11:17:54;;;;;;;2.33;0.50;;;;;;;32.16;28.94;102953.09;5000274;28;20439;-69
2022/08/09 11:20:43;;;;;;;1.67;0.30;;;;;;;32.29;28.23;102958.56;4998378;28;20038;-69
2022/08/09 11:23:09;;;;;;;1.20;0.35;;;;;;;32.10;29.14;102954.38;4999012;28;20514;-68
2022/08/09 11:25:37;;;;;;;0.93;0.60;;;;;;;31.32;30.24;102958.50;4999496;28;20037;-71
2022/08/09 11:28:38;;;;;;;1.20;0.40;;;;;;;31.05;31.13;102941.94;4995161;28;20045;-69
2022/08/09 11:31:43;;;;;;;2.67;0.30;;;;;;;32.13;28.82;102937.03;4988505;28;20292;-69